Time;durP1;ratioP1;P1;durP2;ratioP2;P2;SDS_P1;SDS_P2;PMS_P1;PMS_P2;Temp;Humidity;BMP_temperature;BMP_pressure;BME280_temperature;BME280_humidity;BME280_pressure;Samples;Min_cycle;Max_cycle;Signal;HPM_P1;HPM_P2
2023/04/25 00:01:21;;;;;;;;;;;7.30;99.90;;;;;;5047954;28;19936;-81
2023/04/25 00:03:47;;;;;;;;;;;7.10;99.90;;;;;;5067412;28;19939;-79
2023/04/25 00:06:13;;;;;;;;;;;7.00;99.90;;;;;;5071195;28;19928;-80
2023/04/25 00:08:39;;;;;;;;;;;7.10;99.90;;;;;;5054747;28;19925;-80
2023/04/25 00:11:04;;;;;;;;;;;7.00;99.90;;;;;;5068152;28;19928;-80
2023/04/25 00:13:30;;;;;;;;;;;6.90;99.90;;;;;;5073812;28;20351;-80
2023/04/25 00:15:59;;;;;;;;;;;7.00;99.90;;;;;;5074501;28;19938;-79
2023/04/25 00:18:28;;;;;;;;;;;7.10;99.90;;;;;;5070291;28;20347;-80
2023/04/25 00:20:54;;;;;;;;;;;7.10;99.90;;;;;;5070389;28;20350;-80
2023/04/25 00:23:20;;;;;;;;;;;7.10;99.90;;;;;;5070160;28;19929;-80
2023/04/25 00:25:46;;;;;;;;;;;7.20;99.90;;;;;;5071000;28;20023;-80
2023/04/25 00:28:11;;;;;;;;;;;7.10;99.90;;;;;;5070401;28;20007;-80
2023/04/25 00:30:38;;;;;;;;;;;7.00;99.90;;;;;;5068116;28;20536;-80
2023/04/25 00:33:03;;;;;;;;;;;6.90;99.90;;;;;;5068629;28;19928;-80
2023/04/25 00:35:29;;;;;;;;;;;6.90;99.90;;;;;;5069002;28;19942;-80
2023/04/25 00:37:54;;;;;;;;;;;6.80;99.90;;;;;;5071849;28;20039;-80
2023/04/25 00:40:20;;;;;;;;;;;6.80;99.90;;;;;;5071549;28;20427;-80
2023/04/25 00:42:46;;;;;;;;;;;6.80;99.90;;;;;;5072631;28;20385;-79
2023/04/25 00:45:13;;;;;;;;;;;6.90;99.90;;;;;;5070604;28;20300;-80
2023/04/25 00:47:40;;;;;;;;;;;6.70;99.90;;;;;;5065712;28;19924;-80
2023/04/25 00:50:06;;;;;;;;;;;6.70;99.90;;;;;;5068539;28;19934;-80
2023/04/25 00:52:31;;;;;;;;;;;6.60;99.90;;;;;;5071286;28;19927;-80
2023/04/25 00:54:57;;;;;;;;;;;6.60;99.90;;;;;;5069388;28;19928;-80
2023/04/25 00:57:23;;;;;;;;;;;6.40;99.90;;;;;;5070694;28;19928;-80
2023/04/25 00:59:50;;;;;;;;;;;6.50;99.90;;;;;;5071012;28;19943;-79
2023/04/25 01:02:16;;;;;;;;;;;6.40;99.90;;;;;;5065125;28;19943;-80
2023/04/25 01:04:42;;;;;;;;;;;6.30;99.90;;;;;;5067081;28;19932;-80
2023/04/25 01:07:08;;;;;;;;;;;6.30;99.90;;;;;;5068163;28;19928;-80
2023/04/25 01:09:33;;;;;;;;;;;6.20;99.90;;;;;;5072586;28;19954;-79
2023/04/25 01:11:59;;;;;;;;;;;6.10;99.90;;;;;;5070754;28;19928;-79
2023/04/25 01:14:25;;;;;;;;;;;6.10;99.90;;;;;;5052018;28;19989;-79
2023/04/25 01:16:52;;;;;;;;;;;6.10;99.90;;;;;;5068661;28;19936;-80
2023/04/25 01:19:19;;;;;;;;;;;6.10;99.90;;;;;;5072563;28;19936;-79
2023/04/25 01:21:45;;;;;;;;;;;6.00;99.90;;;;;;5065322;28;19933;-80
2023/04/25 01:24:11;;;;;;;;;;;6.10;99.90;;;;;;5070727;28;19979;-80
2023/04/25 01:26:37;;;;;;;;;;;6.10;99.90;;;;;;5066148;28;19976;-80
2023/04/25 01:29:03;;;;;;;;;;;6.20;99.90;;;;;;5072688;28;19974;-79
2023/04/25 01:31:29;;;;;;;;;;;6.20;99.90;;;;;;5083705;28;20637;-79
2023/04/25 01:33:55;;;;;;;;;;;6.10;99.90;;;;;;5063438;28;19934;-79
2023/04/25 01:36:21;;;;;;;;;;;6.10;99.90;;;;;;5067828;28;19932;-79
2023/04/25 01:38:47;;;;;;;;;;;6.10;99.90;;;;;;5071756;28;20308;-79
2023/04/25 01:41:13;;;;;;;;;;;6.00;99.90;;;;;;5067980;28;19928;-80
2023/04/25 01:43:39;;;;;;;;;;;6.10;99.90;;;;;;5067753;28;20355;-79
2023/04/25 01:46:05;;;;;;;;;;;6.00;99.90;;;;;;5067736;28;19932;-79
2023/04/25 01:48:31;;;;;;;;;;;6.00;99.90;;;;;;5067980;28;20343;-79
2023/04/25 01:50:56;;;;;;;;;;;6.00;99.90;;;;;;5069695;28;20010;-79
2023/04/25 01:53:22;;;;;;;;;;;6.00;99.90;;;;;;5073200;28;20297;-79
2023/04/25 01:55:48;;;;;;;;;;;5.90;99.90;;;;;;5066671;28;19969;-79
2023/04/25 01:58:13;;;;;;;;;;;5.90;99.90;;;;;;5068115;28;19962;-80
2023/04/25 02:00:40;;;;;;;;;;;5.80;99.90;;;;;;5065370;28;19963;-80
2023/04/25 02:03:06;;;;;;;;;;;5.80;99.90;;;;;;5066830;28;19931;-80
2023/04/25 02:05:38;;;;;;;;;;;5.70;99.90;;;;;;5068516;28;19932;-79
2023/04/25 02:08:05;;;;;;;;;;;5.70;99.90;;;;;;5070924;28;20597;-80
2023/04/25 02:10:31;;;;;;;;;;;5.80;99.90;;;;;;5066579;28;19935;-79
2023/04/25 02:12:57;;;;;;;;;;;5.70;99.90;;;;;;5067450;28;19932;-79
2023/04/25 02:15:22;;;;;;;;;;;5.60;99.90;;;;;;5068507;28;19925;-79
2023/04/25 02:17:48;;;;;;;;;;;5.70;99.90;;;;;;5068427;28;19935;-79
2023/04/25 02:20:15;;;;;;;;;;;5.70;99.90;;;;;;5071272;28;19932;-79
2023/04/25 02:22:41;;;;;;;;;;;5.70;99.90;;;;;;5071637;28;19943;-79
2023/04/25 02:25:07;;;;;;;;;;;5.70;99.90;;;;;;5070020;28;19986;-79
2023/04/25 02:27:33;;;;;;;;;;;5.70;99.90;;;;;;5069193;28;20344;-79
2023/04/25 02:29:58;;;;;;;;;;;5.70;99.90;;;;;;5068199;28;19924;-79
2023/04/25 02:32:24;;;;;;;;;;;5.80;99.90;;;;;;5068826;28;19935;-79
2023/04/25 02:34:50;;;;;;;;;;;5.80;99.90;;;;;;5071836;28;20293;-79
2023/04/25 02:37:15;;;;;;;;;;;5.90;99.90;;;;;;5067449;28;19932;-80
2023/04/25 02:39:41;;;;;;;;;;;5.90;99.90;;;;;;5065741;28;19932;-79
2023/04/25 02:42:06;;;;;;;;;;;5.80;99.90;;;;;;5069935;28;19935;-79
2023/04/25 02:44:32;;;;;;;;;;;5.90;99.90;;;;;;5069274;28;19928;-79
2023/04/25 02:46:57;;;;;;;;;;;6.00;99.90;;;;;;5049272;28;19962;-79
2023/04/25 02:49:23;;;;;;;;;;;6.00;99.90;;;;;;5069050;28;19963;-79
2023/04/25 02:51:48;;;;;;;;;;;6.00;99.90;;;;;;5069731;28;19928;-79
2023/04/25 02:54:14;;;;;;;;;;;5.90;99.90;;;;;;5071299;28;19942;-79
2023/04/25 02:56:40;;;;;;;;;;;6.00;99.90;;;;;;5063231;28;19932;-80
2023/04/25 02:59:05;;;;;;;;;;;6.00;99.90;;;;;;5064141;28;19962;-79
2023/04/25 03:01:31;;;;;;;;;;;6.00;99.90;;;;;;5065557;28;19966;-79
2023/04/25 03:03:56;;;;;;;;;;;6.00;99.90;;;;;;5065009;28;19935;-79
2023/04/25 03:06:22;;;;;;;;;;;6.00;99.90;;;;;;5067437;28;19928;-79
2023/04/25 03:08:47;;;;;;;;;;;6.00;99.90;;;;;;5065660;28;19928;-78
2023/04/25 03:11:13;;;;;;;;;;;6.00;99.90;;;;;;5070807;28;19932;-79
2023/04/25 03:13:38;;;;;;;;;;;6.10;99.90;;;;;;5074217;28;19989;-80
2023/04/25 03:16:04;;;;;;;;;;;6.00;99.90;;;;;;5075302;28;19934;-80
2023/04/25 03:18:30;;;;;;;;;;;6.10;99.90;;;;;;5072568;28;20018;-78
2023/04/25 03:20:55;;;;;;;;;;;6.00;99.90;;;;;;5072580;28;19925;-79
2023/04/25 03:23:21;;;;;;;;;;;6.10;99.90;;;;;;5073562;28;19933;-79
2023/04/25 03:25:46;;;;;;;;;;;6.10;99.90;;;;;;5070876;28;20023;-79
2023/04/25 03:28:12;;;;;;;;;;;6.10;99.90;;;;;;5078183;28;19928;-79
2023/04/25 03:30:38;;;;;;;;;;;6.10;99.90;;;;;;5073125;28;19935;-79
2023/04/25 03:33:03;;;;;;;;;;;6.00;99.90;;;;;;5076588;28;19928;-79
2023/04/25 03:35:29;;;;;;;;;;;6.00;99.90;;;;;;5072424;28;19973;-79
2023/04/25 03:37:54;;;;;;;;;;;6.00;99.90;;;;;;5076640;28;19935;-79
2023/04/25 03:40:20;;;;;;;;;;;6.00;99.90;;;;;;5070764;28;20309;-79
2023/04/25 03:42:45;;;;;;;;;;;6.00;99.90;;;;;;5058044;28;19928;-78
2023/04/25 03:45:11;;;;;;;;;;;6.00;99.90;;;;;;5073711;28;20651;-79
2023/04/25 03:47:37;;;;;;;;;;;6.00;99.90;;;;;;5076582;28;20308;-79
2023/04/25 03:50:02;;;;;;;;;;;6.00;99.90;;;;;;5075461;28;20384;-79
2023/04/25 03:52:28;;;;;;;;;;;6.00;99.90;;;;;;5071729;28;19935;-79
2023/04/25 03:54:53;;;;;;;;;;;6.00;99.90;;;;;;5075806;28;20073;-79
2023/04/25 03:57:19;;;;;;;;;;;5.90;99.90;;;;;;5074699;28;19932;-79
2023/04/25 03:59:45;;;;;;;;;;;5.90;99.90;;;;;;5069922;28;19928;-80
2023/04/25 04:02:10;;;;;;;;;;;5.90;99.90;;;;;;5072529;28;20041;-78
2023/04/25 04:04:37;;;;;;;;;;;5.90;99.90;;;;;;5072783;28;19933;-79
2023/04/25 04:07:02;;;;;;;;;;;6.00;99.90;;;;;;5070075;28;20007;-80
2023/04/25 04:09:28;;;;;;;;;;;5.90;99.90;;;;;;5069904;28;20053;-79
2023/04/25 04:11:53;;;;;;;;;;;5.90;99.90;;;;;;5073051;28;19976;-79
2023/04/25 04:14:19;;;;;;;;;;;5.90;99.90;;;;;;5058697;28;20507;-79
2023/04/25 04:16:45;;;;;;;;;;;5.90;99.90;;;;;;5073789;28;20051;-79
2023/04/25 04:19:10;;;;;;;;;;;5.90;99.90;;;;;;5075777;28;19943;-79
2023/04/25 04:21:36;;;;;;;;;;;5.90;99.90;;;;;;5071847;28;19957;-80
2023/04/25 04:24:01;;;;;;;;;;;5.90;99.90;;;;;;5054857;28;20499;-79
2023/04/25 04:26:27;;;;;;;;;;;5.90;99.90;;;;;;5072889;28;19935;-79
2023/04/25 04:28:54;;;;;;;;;;;5.90;99.90;;;;;;5073442;28;19951;-80
2023/04/25 04:31:23;;;;;;;;;;;5.80;99.90;;;;;;5073163;28;19928;-79
2023/04/25 04:33:49;;;;;;;;;;;5.80;99.90;;;;;;5071840;28;19978;-79
2023/04/25 04:36:15;;;;;;;;;;;5.80;99.90;;;;;;5070865;28;19991;-79
2023/04/25 04:38:42;;;;;;;;;;;5.80;99.90;;;;;;5072211;28;19924;-79
2023/04/25 04:41:07;;;;;;;;;;;5.80;99.90;;;;;;5073952;28;19954;-79
2023/04/25 04:43:33;;;;;;;;;;;5.70;99.90;;;;;;5070329;28;20410;-79
2023/04/25 04:46:03;;;;;;;;;;;5.80;99.90;;;;;;5069851;28;20758;-79
2023/04/25 04:48:28;;;;;;;;;;;5.70;99.90;;;;;;5071645;28;19932;-79
2023/04/25 04:50:54;;;;;;;;;;;5.80;99.90;;;;;;5067388;28;20368;-79
2023/04/25 04:53:20;;;;;;;;;;;5.70;99.90;;;;;;5071411;28;19979;-80
2023/04/25 04:55:46;;;;;;;;;;;5.80;99.90;;;;;;5069517;28;19928;-80
2023/04/25 04:58:11;;;;;;;;;;;5.80;99.90;;;;;;5064301;28;19939;-80
2023/04/25 05:00:38;;;;;;;;;;;5.80;99.90;;;;;;5064387;28;19931;-80
2023/04/25 05:03:05;;;;;;;;;;;5.80;99.90;;;;;;5073260;28;20461;-82
2023/04/25 05:05:30;;;;;;;;;;;5.70;99.90;;;;;;5067243;28;19963;-78
2023/04/25 05:07:56;;;;;;;;;;;5.80;99.90;;;;;;5067928;28;20390;-80
2023/04/25 05:10:21;;;;;;;;;;;5.80;99.90;;;;;;5071075;28;20282;-80
2023/04/25 05:12:47;;;;;;;;;;;5.80;99.90;;;;;;5069719;28;20633;-80
2023/04/25 05:15:13;;;;;;;;;;;5.80;99.90;;;;;;5070450;28;19927;-80
2023/04/25 05:17:38;;;;;;;;;;;5.80;99.90;;;;;;5068208;28;19939;-80
2023/04/25 05:20:05;;;;;;;;;;;5.90;99.90;;;;;;5074006;28;20602;-80
2023/04/25 05:22:31;;;;;;;;;;;5.90;99.90;;;;;;5054809;28;19939;-80
2023/04/25 05:24:56;;;;;;;;;;;6.00;99.90;;;;;;5069426;28;19928;-80
2023/04/25 05:27:22;;;;;;;;;;;6.00;99.90;;;;;;5073241;28;19928;-80
2023/04/25 05:29:47;;;;;;;;;;;6.00;99.90;;;;;;5053407;28;19928;-80
2023/04/25 05:32:13;;;;;;;;;;;6.00;99.90;;;;;;5067713;28;20464;-80
2023/04/25 05:34:39;;;;;;;;;;;6.10;99.90;;;;;;5071454;28;20058;-80
2023/04/25 05:37:04;;;;;;;;;;;6.10;99.90;;;;;;5065138;28;19927;-80
2023/04/25 05:39:30;;;;;;;;;;;6.10;99.90;;;;;;5071160;28;19928;-80
2023/04/25 05:41:55;;;;;;;;;;;6.10;99.90;;;;;;5067415;28;19939;-80
2023/04/25 05:44:21;;;;;;;;;;;6.20;99.90;;;;;;5070281;28;20059;-80
2023/04/25 05:46:47;;;;;;;;;;;6.30;99.90;;;;;;5066843;28;19932;-80
2023/04/25 05:49:12;;;;;;;;;;;6.30;99.90;;;;;;5069136;28;20305;-80
2023/04/25 05:51:38;;;;;;;;;;;6.40;99.90;;;;;;5063832;28;20396;-80
2023/04/25 05:54:03;;;;;;;;;;;6.40;99.90;;;;;;5057143;28;20014;-80
2023/04/25 05:56:29;;;;;;;;;;;6.50;99.90;;;;;;5048405;28;19962;-80
2023/04/25 05:58:55;;;;;;;;;;;6.60;99.90;;;;;;5055281;28;20030;-80
2023/04/25 06:01:21;;;;;;;;;;;6.70;99.90;;;;;;5055695;28;20300;-80
2023/04/25 06:03:47;;;;;;;;;;;6.90;99.90;;;;;;5053280;28;20336;-80
2023/04/25 06:06:13;;;;;;;;;;;7.30;99.90;;;;;;5051158;28;19928;-80
2023/04/25 06:08:38;;;;;;;;;;;7.50;99.90;;;;;;5053503;28;19932;-80
2023/04/25 06:11:04;;;;;;;;;;;7.60;99.90;;;;;;5057788;28;21923;-80
2023/04/25 06:13:30;;;;;;;;;;;7.80;99.90;;;;;;5069323;28;19955;-80
2023/04/25 06:15:55;;;;;;;;;;;8.10;99.90;;;;;;5076000;28;19936;-80
2023/04/25 06:18:21;;;;;;;;;;;8.20;99.90;;;;;;5046166;28;19975;-80
2023/04/25 06:20:46;;;;;;;;;;;8.50;99.90;;;;;;5071732;28;20376;-80
2023/04/25 06:23:12;;;;;;;;;;;8.70;99.90;;;;;;5074376;28;19950;-80
2023/04/25 06:25:37;;;;;;;;;;;8.70;99.90;;;;;;5072740;28;20003;-80
2023/04/25 06:28:03;;;;;;;;;;;8.60;99.90;;;;;;5053636;28;19928;-80
2023/04/25 06:30:29;;;;;;;;;;;8.50;99.90;;;;;;5063868;28;19936;-81
2023/04/25 06:32:55;;;;;;;;;;;8.40;99.90;;;;;;5072923;28;19934;-80
2023/04/25 06:35:20;;;;;;;;;;;8.30;99.90;;;;;;5072759;28;19929;-80
2023/04/25 06:37:46;;;;;;;;;;;8.30;99.90;;;;;;5071634;28;19925;-81
2023/04/25 06:40:12;;;;;;;;;;;8.20;99.90;;;;;;5075382;28;20055;-81
2023/04/25 06:42:37;;;;;;;;;;;8.20;99.90;;;;;;5073835;28;19975;-80
2023/04/25 06:45:03;;;;;;;;;;;8.00;99.90;;;;;;5073303;28;19935;-80
2023/04/25 06:47:29;;;;;;;;;;;8.10;99.90;;;;;;5074953;28;19924;-80
2023/04/25 06:49:55;;;;;;;;;;;8.10;99.90;;;;;;5078467;28;19928;-80
2023/04/25 06:52:21;;;;;;;;;;;8.10;99.90;;;;;;5077475;28;19935;-81
2023/04/25 06:54:46;;;;;;;;;;;8.20;99.90;;;;;;5077375;28;19931;-81
2023/04/25 06:57:12;;;;;;;;;;;8.30;99.90;;;;;;5075249;28;20046;-80
2023/04/25 06:59:37;;;;;;;;;;;8.30;99.90;;;;;;5073419;28;20719;-80
2023/04/25 07:02:03;;;;;;;;;;;8.30;99.90;;;;;;5072636;28;20015;-81
2023/04/25 07:04:30;;;;;;;;;;;8.20;99.90;;;;;;5074856;28;20024;-80
2023/04/25 07:06:56;;;;;;;;;;;8.10;99.90;;;;;;5073065;28;19928;-81
2023/04/25 07:09:21;;;;;;;;;;;8.20;99.90;;;;;;5071580;28;19932;-81
2023/04/25 07:11:47;;;;;;;;;;;8.40;99.90;;;;;;5077652;28;20440;-79
2023/04/25 07:14:13;;;;;;;;;;;8.70;99.90;;;;;;5069012;28;20305;-80
2023/04/25 07:16:38;;;;;;;;;;;8.90;99.90;;;;;;5070844;28;19928;-79
2023/04/25 07:19:04;;;;;;;;;;;9.10;99.90;;;;;;5074541;28;19963;-80
2023/04/25 07:21:31;;;;;;;;;;;9.30;99.90;;;;;;5071407;28;19928;-81
2023/04/25 07:23:57;;;;;;;;;;;9.40;99.90;;;;;;5074017;28;19981;-80
2023/04/25 07:26:22;;;;;;;;;;;9.60;99.90;;;;;;5059558;28;19928;-81
2023/04/25 07:28:50;;;;;;;;;;;9.70;99.90;;;;;;5070301;28;19971;-81
2023/04/25 07:31:17;;;;;;;;;;;9.80;99.90;;;;;;5056880;28;19928;-81
2023/04/25 07:33:44;;;;;;;;;;;10.40;99.90;;;;;;5077488;28;19965;-81
2023/04/25 07:36:10;;;;;;;;;;;10.40;99.90;;;;;;5068791;28;19935;-80
2023/04/25 07:38:36;;;;;;;;;;;10.30;99.90;;;;;;5078347;28;20325;-79
2023/04/25 07:41:01;;;;;;;;;;;10.20;99.90;;;;;;5074291;28;19936;-80
2023/04/25 07:43:27;;;;;;;;;;;9.50;99.90;;;;;;5074430;28;19928;-81
2023/04/25 07:45:52;;;;;;;;;;;9.60;99.90;;;;;;5073684;28;19940;-80
2023/04/25 07:48:18;;;;;;;;;;;9.50;99.90;;;;;;5064584;28;19934;-80
2023/04/25 07:50:44;;;;;;;;;;;9.50;99.90;;;;;;5073984;28;20297;-80
2023/04/25 07:53:10;;;;;;;;;;;9.70;99.90;;;;;;5071719;28;19958;-80
2023/04/25 07:55:36;;;;;;;;;;;9.30;99.90;;;;;;5072399;28;19978;-81
2023/04/25 07:58:01;;;;;;;;;;;9.40;99.90;;;;;;5075796;28;19928;-80
2023/04/25 08:00:28;;;;;;;;;;;9.50;99.90;;;;;;5069203;28;19934;-79
2023/04/25 08:02:53;;;;;;;;;;;9.60;99.90;;;;;;5066507;28;19934;-80
2023/04/25 08:05:19;;;;;;;;;;;9.70;99.90;;;;;;5063769;28;19928;-79
2023/04/25 08:07:45;;;;;;;;;;;9.70;99.90;;;;;;5065940;28;19927;-81
2023/04/25 08:10:10;;;;;;;;;;;9.40;99.90;;;;;;5059167;28;19939;-81
2023/04/25 08:12:36;;;;;;;;;;;9.80;99.90;;;;;;5071495;28;19935;-82
2023/04/25 08:15:01;;;;;;;;;;;9.70;99.90;;;;;;5072929;28;20420;-80
2023/04/25 08:17:27;;;;;;;;;;;10.30;99.90;;;;;;5065188;28;19944;-80
2023/04/25 08:19:53;;;;;;;;;;;10.40;99.90;;;;;;5073130;28;19928;-80
2023/04/25 08:22:18;;;;;;;;;;;10.40;99.90;;;;;;5067279;28;20582;-79
2023/04/25 08:24:44;;;;;;;;;;;10.50;99.90;;;;;;5072102;28;19936;-80
2023/04/25 08:27:09;;;;;;;;;;;10.30;99.90;;;;;;5067432;28;20404;-79
2023/04/25 08:29:35;;;;;;;;;;;10.40;99.90;;;;;;5069442;28;19932;-80
2023/04/25 08:32:00;;;;;;;;;;;10.40;99.90;;;;;;5073335;28;19939;-79
2023/04/25 08:34:26;;;;;;;;;;;10.20;99.90;;;;;;5074128;28;19928;-79
2023/04/25 08:36:52;;;;;;;;;;;10.60;99.90;;;;;;5073019;28;19943;-80
2023/04/25 08:39:17;;;;;;;;;;;10.90;99.90;;;;;;5073206;28;19928;-81
2023/04/25 08:41:44;;;;;;;;;;;11.10;99.90;;;;;;5058917;28;19982;-79
2023/04/25 08:44:10;;;;;;;;;;;11.10;99.90;;;;;;5064012;28;19951;-80
2023/04/25 08:46:37;;;;;;;;;;;11.60;99.90;;;;;;5060998;28;19932;-81
2023/04/25 08:49:03;;;;;;;;;;;11.10;99.90;;;;;;5068140;28;19935;-80
2023/04/25 08:51:31;;;;;;;;;;;11.00;99.90;;;;;;5064423;28;20460;-80
2023/04/25 08:54:03;;;;;;;;;;;10.30;99.90;;;;;;5069529;28;19932;-80
2023/04/25 08:56:29;;;;;;;;;;;10.10;99.90;;;;;;5068395;28;19935;-79
2023/04/25 08:58:55;;;;;;;;;;;10.50;99.90;;;;;;5067050;28;19928;-79
2023/04/25 09:01:20;;;;;;;;;;;10.70;99.90;;;;;;5066682;28;20266;-80
2023/04/25 09:03:47;;;;;;;;;;;10.50;99.90;;;;;;5075364;28;19934;-79
2023/04/25 09:06:12;;;;;;;;;;;11.30;99.90;;;;;;5069182;28;19928;-80
2023/04/25 09:08:40;;;;;;;;;;;10.80;99.90;;;;;;5064731;28;19931;-78
2023/04/25 09:11:06;;;;;;;;;;;10.80;99.90;;;;;;5069017;28;20038;-79
2023/04/25 09:13:31;;;;;;;;;;;10.90;99.90;;;;;;5072784;28;19932;-79
2023/04/25 09:15:57;;;;;;;;;;;10.90;99.90;;;;;;5075460;28;20420;-80
2023/04/25 09:18:27;;;;;;;;;;;10.50;99.90;;;;;;5069541;28;19936;-80
2023/04/25 09:20:53;;;;;;;;;;;11.40;99.90;;;;;;5042720;28;19928;-81
2023/04/25 09:23:21;;;;;;;;;;;11.30;99.90;;;;;;5072358;28;19928;-80
2023/04/25 09:25:51;;;;;;;;;;;11.40;99.90;;;;;;5068053;28;19942;-80
2023/04/25 09:28:22;;;;;;;;;;;11.70;99.90;;;;;;5071215;28;19954;-80
2023/04/25 09:30:48;;;;;;;;;;;11.70;99.90;;;;;;5073132;28;20308;-81
2023/04/25 09:33:13;;;;;;;;;;;11.70;99.90;;;;;;5072209;28;19928;-80
2023/04/25 09:35:43;;;;;;;;;;;11.70;99.90;;;;;;5067334;28;20712;-80
2023/04/25 09:38:12;;;;;;;;;;;11.70;99.90;;;;;;5063888;28;20027;-79
2023/04/25 09:40:45;;;;;;;;;;;12.00;99.90;;;;;;5063045;28;19935;-80
2023/04/25 09:43:18;;;;;;;;;;;12.10;99.90;;;;;;5067157;28;19961;-80
2023/04/25 09:45:45;;;;;;;;;;;12.00;99.90;;;;;;5066770;28;20597;-79
2023/04/25 09:48:11;;;;;;;;;;;12.10;99.90;;;;;;5064611;28;19930;-80
2023/04/25 09:50:37;;;;;;;;;;;12.30;99.90;;;;;;5065667;28;19968;-80
2023/04/25 09:53:03;;;;;;;;;;;12.40;99.90;;;;;;5068070;28;20010;-80
2023/04/25 09:55:29;;;;;;;;;;;12.60;99.90;;;;;;5065711;28;19924;-80
2023/04/25 09:57:57;;;;;;;;;;;12.20;99.90;;;;;;5069906;28;19928;-80
2023/04/25 10:00:23;;;;;;;;;;;11.60;99.90;;;;;;5070382;28;19985;-80
2023/04/25 10:02:50;;;;;;;;;;;10.30;99.90;;;;;;5067652;28;20121;-78
2023/04/25 10:05:16;;;;;;;;;;;8.90;99.90;;;;;;5057999;28;19938;-78
2023/04/25 10:07:42;;;;;;;;;;;8.30;99.90;;;;;;5071817;28;19939;-78
2023/04/25 10:10:08;;;;;;;;;;;8.00;99.90;;;;;;5063832;28;19932;-79
2023/04/25 10:12:34;;;;;;;;;;;7.70;99.90;;;;;;5052750;28;19951;-80
2023/04/25 10:15:00;;;;;;;;;;;7.70;99.90;;;;;;5062913;28;19928;-80
2023/04/25 10:17:27;;;;;;;;;;;7.50;99.90;;;;;;5070235;28;19951;-80
2023/04/25 10:19:53;;;;;;;;;;;7.40;99.90;;;;;;5068663;28;19963;-80
2023/04/25 10:22:32;;;;;;;;;;;7.10;99.90;;;;;;5077777;28;20116;-80
2023/04/25 10:24:58;;;;;;;;;;;7.30;99.90;;;;;;5075143;28;20301;-80
2023/04/25 10:27:24;;;;;;;;;;;7.30;99.90;;;;;;5076490;28;19928;-78
2023/04/25 10:30:16;;;;;;;;;;;7.60;99.90;;;;;;5074871;28;19924;-80
2023/04/25 10:32:42;;;;;;;;;;;8.00;99.90;;;;;;5071922;28;19932;-81
2023/04/25 10:35:11;;;;;;;;;;;8.50;99.90;;;;;;5074529;28;19936;-80
2023/04/25 10:37:37;;;;;;;;;;;9.00;99.90;;;;;;5071980;28;19929;-81
2023/04/25 10:40:09;;;;;;;;;;;9.60;99.90;;;;;;5069197;28;19981;-80
2023/04/25 10:42:35;;;;;;;;;;;9.80;99.90;;;;;;5067602;28;19935;-81
2023/04/25 10:45:05;;;;;;;;;;;9.50;99.90;;;;;;5073891;28;19932;-80
2023/04/25 10:47:43;;;;;;;;;;;10.00;99.90;;;;;;5070781;28;20054;-80
2023/04/25 10:50:08;;;;;;;;;;;10.30;99.90;;;;;;5078354;28;20334;-80
2023/04/25 10:52:34;;;;;;;;;;;9.90;99.90;;;;;;5072937;28;19928;-79
2023/04/25 10:55:02;;;;;;;;;;;9.20;99.90;;;;;;5075931;28;19928;-80
2023/04/25 10:57:29;;;;;;;;;;;8.90;99.90;;;;;;5072134;28;19928;-80
2023/04/25 10:59:58;;;;;;;;;;;8.40;99.90;;;;;;5071801;28;20089;-81
2023/04/25 11:02:26;;;;;;;;;;;8.50;99.90;;;;;;5060994;28;20396;-81
2023/04/25 11:04:53;;;;;;;;;;;8.50;99.90;;;;;;5070882;28;20408;-80
2023/04/25 11:07:37;;;;;;;;;;;8.60;99.90;;;;;;5055013;28;19939;-81
2023/04/25 11:10:04;;;;;;;;;;;8.60;99.90;;;;;;5062701;28;19939;-80
2023/04/25 11:12:30;;;;;;;;;;;8.80;99.90;;;;;;5063797;28;19928;-81
2023/04/25 11:15:06;;;;;;;;;;;9.00;99.90;;;;;;5067276;28;19939;-80
2023/04/25 11:17:31;;;;;;;;;;;9.00;99.90;;;;;;5071051;28;19928;-79
2023/04/25 11:19:57;;;;;;;;;;;9.50;99.90;;;;;;5080463;28;19928;-80
2023/04/25 11:22:23;;;;;;;;;;;9.70;99.90;;;;;;5079188;28;20408;-80
2023/04/25 11:24:48;;;;;;;;;;;9.70;99.90;;;;;;5073669;28;19943;-80
2023/04/25 11:27:14;;;;;;;;;;;10.30;99.90;;;;;;5052402;28;20012;-80
2023/04/25 11:29:40;;;;;;;;;;;10.60;99.90;;;;;;5070183;28;20007;-81
2023/04/25 11:32:06;;;;;;;;;;;10.30;99.90;;;;;;5072533;28;19928;-80
2023/04/25 11:34:35;;;;;;;;;;;9.90;99.90;;;;;;5071540;28;20421;-79
2023/04/25 11:37:01;;;;;;;;;;;9.90;99.90;;;;;;5074401;28;19932;-80
2023/04/25 11:39:27;;;;;;;;;;;9.80;99.90;;;;;;5058200;28;19932;-80
2023/04/25 11:41:53;;;;;;;;;;;10.00;99.90;;;;;;5073244;28;19939;-80
2023/04/25 11:44:19;;;;;;;;;;;10.80;99.90;;;;;;5070276;28;19928;-80
2023/04/25 11:46:45;;;;;;;;;;;11.30;99.90;;;;;;5067503;28;19932;-80
2023/04/25 11:49:11;;;;;;;;;;;11.70;99.90;;;;;;5076078;28;20313;-81
2023/04/25 11:51:40;;;;;;;;;;;11.90;99.90;;;;;;5071167;28;19932;-81
2023/04/25 11:54:06;;;;;;;;;;;11.80;99.90;;;;;;5077292;28;19935;-80
2023/04/25 11:56:32;;;;;;;;;;;12.20;99.90;;;;;;5071578;28;19933;-80
2023/04/25 11:59:02;;;;;;;;;;;12.30;99.90;;;;;;5073919;28;19935;-79
2023/04/25 12:01:32;;;;;;;;;;;12.60;99.90;;;;;;5071032;28;20534;-78
2023/04/25 12:03:57;;;;;;;;;;;12.80;99.90;;;;;;5074922;28;20005;-81
2023/04/25 12:06:27;;;;;;;;;;;12.60;99.90;;;;;;5077521;28;20393;-80
2023/04/25 12:09:03;;;;;;;;;;;12.00;99.90;;;;;;5074970;28;20430;-80
2023/04/25 12:11:32;;;;;;;;;;;12.20;99.90;;;;;;5071196;28;19931;-81
2023/04/25 12:14:01;;;;;;;;;;;12.30;99.90;;;;;;5075067;28;19989;-80
2023/04/25 12:16:27;;;;;;;;;;;12.50;99.90;;;;;;5077053;28;19936;-81
2023/04/25 12:18:53;;;;;;;;;;;12.80;99.90;;;;;;5072651;28;19927;-80
2023/04/25 12:21:20;;;;;;;;;;;12.10;99.90;;;;;;5074541;28;19976;-81
2023/04/25 12:23:45;;;;;;;;;;;11.30;99.90;;;;;;5053910;28;19932;-81
2023/04/25 12:26:11;;;;;;;;;;;11.30;99.90;;;;;;5073878;28;20412;-80
2023/04/25 12:28:36;;;;;;;;;;;11.00;99.90;;;;;;5072754;28;19982;-79
2023/04/25 12:31:06;;;;;;;;;;;10.30;99.90;;;;;;5075473;28;19980;-79
2023/04/25 12:33:37;;;;;;;;;;;9.80;99.90;;;;;;5071584;28;19932;-79
2023/04/25 12:36:08;;;;;;;;;;;9.40;99.90;;;;;;5072597;28;19943;-79
2023/04/25 12:38:40;;;;;;;;;;;9.70;99.90;;;;;;5059449;28;19928;-79
2023/04/25 12:41:06;;;;;;;;;;;9.90;99.90;;;;;;5075398;28;20451;-78
2023/04/25 12:43:32;;;;;;;;;;;10.20;99.90;;;;;;5073336;28;19950;-79
2023/04/25 12:45:57;;;;;;;;;;;10.50;99.90;;;;;;5090175;28;19928;-80
2023/04/25 12:48:23;;;;;;;;;;;11.20;99.90;;;;;;5073410;28;19929;-79
2023/04/25 12:50:50;;;;;;;;;;;11.20;99.90;;;;;;5073117;28;19936;-80
2023/04/25 12:53:22;;;;;;;;;;;11.40;99.90;;;;;;5070864;28;19935;-80
2023/04/25 12:55:48;;;;;;;;;;;11.40;99.90;;;;;;5071611;28;19971;-80
2023/04/25 12:58:14;;;;;;;;;;;11.40;99.90;;;;;;5067780;28;19925;-80
2023/04/25 13:00:39;;;;;;;;;;;11.70;99.90;;;;;;5068424;28;19938;-80
2023/04/25 13:03:05;;;;;;;;;;;11.50;99.90;;;;;;5066918;28;19928;-80
2023/04/25 13:05:31;;;;;;;;;;;11.20;99.90;;;;;;5071700;28;19928;-81
2023/04/25 13:07:56;;;;;;;;;;;11.70;99.90;;;;;;5071050;28;19932;-79
2023/04/25 13:10:22;;;;;;;;;;;11.90;99.90;;;;;;5074736;28;19939;-80
2023/04/25 13:12:48;;;;;;;;;;;12.00;99.90;;;;;;5068185;28;19928;-80
2023/04/25 13:15:15;;;;;;;;;;;12.30;99.90;;;;;;5069742;28;20020;-81
2023/04/25 13:17:41;;;;;;;;;;;11.90;99.90;;;;;;5068431;28;19924;-80
2023/04/25 13:20:08;;;;;;;;;;;11.80;99.90;;;;;;5067669;28;19935;-79
2023/04/25 13:22:36;;;;;;;;;;;11.80;99.90;;;;;;5071202;28;20699;-80
2023/04/25 13:25:02;;;;;;;;;;;12.10;99.90;;;;;;5071530;28;19932;-80
2023/04/25 13:27:28;;;;;;;;;;;11.90;99.90;;;;;;5071004;28;19928;-80
2023/04/25 13:29:54;;;;;;;;;;;12.00;99.90;;;;;;5063816;28;19986;-80
2023/04/25 13:32:19;;;;;;;;;;;11.60;99.90;;;;;;5075725;28;19928;-80
2023/04/25 13:34:45;;;;;;;;;;;11.80;99.90;;;;;;5067616;28;20051;-80
2023/04/25 13:37:11;;;;;;;;;;;11.60;99.90;;;;;;5076220;28;19928;-79
2023/04/25 13:39:36;;;;;;;;;;;12.20;99.90;;;;;;5071207;28;19928;-79
2023/04/25 13:42:02;;;;;;;;;;;12.30;99.90;;;;;;5072043;28;20011;-80
2023/04/25 13:44:27;;;;;;;;;;;12.30;99.90;;;;;;5072890;28;19928;-80
2023/04/25 13:46:53;;;;;;;;;;;11.70;99.90;;;;;;5066126;28;19928;-80
2023/04/25 13:49:18;;;;;;;;;;;11.90;99.90;;;;;;5035704;28;19954;-81
2023/04/25 13:51:44;;;;;;;;;;;12.10;99.90;;;;;;5065401;28;20048;-80
2023/04/25 13:54:10;;;;;;;;;;;11.70;99.90;;;;;;5057740;28;19928;-80
2023/04/25 13:56:36;;;;;;;;;;;11.50;99.90;;;;;;5061929;28;20421;-79
2023/04/25 13:59:01;;;;;;;;;;;11.40;99.90;;;;;;5065567;28;20138;-78
2023/04/25 14:01:27;;;;;;;;;;;11.20;99.90;;;;;;5063390;28;20384;-77
2023/04/25 14:03:55;;;;;;;;;;;10.50;99.90;;;;;;5066406;28;20232;-79
2023/04/25 14:06:23;;;;;;;;;;;10.70;99.90;;;;;;5070344;28;19936;-80
2023/04/25 14:08:50;;;;;;;;;;;10.70;99.90;;;;;;5069734;28;19928;-81
2023/04/25 14:11:17;;;;;;;;;;;11.00;99.90;;;;;;5068207;28;19928;-81
2023/04/25 14:13:43;;;;;;;;;;;11.10;99.90;;;;;;5069963;28;19928;-80
2023/04/25 14:16:09;;;;;;;;;;;11.10;99.90;;;;;;5069750;28;19928;-79
2023/04/25 14:18:35;;;;;;;;;;;11.30;99.90;;;;;;5066496;28;19935;-79
2023/04/25 14:21:00;;;;;;;;;;;12.20;99.90;;;;;;5070607;28;19928;-80